sensor_id;sensor_type;location;lat;lon;timestamp;temperature;humidity
26503;DHT22;14177;51.520;6.764;2024-03-08T00:00:38;4.30;99.90
26503;DHT22;14177;51.520;6.764;2024-03-08T00:03:07;4.30;99.90
26503;DHT22;14177;51.520;6.764;2024-03-08T00:05:33;4.20;99.90
26503;DHT22;14177;51.520;6.764;2024-03-08T00:08:00;4.20;99.90
26503;DHT22;14177;51.520;6.764;2024-03-08T00:10:30;4.20;99.90
26503;DHT22;14177;51.520;6.764;2024-03-08T00:12:56;4.20;99.90
26503;DHT22;14177;51.520;6.764;2024-03-08T00:15:24;4.20;99.90
26503;DHT22;14177;51.520;6.764;2024-03-08T00:17:51;4.20;99.90
26503;DHT22;14177;51.520;6.764;2024-03-08T00:20:18;4.10;99.90
26503;DHT22;14177;51.520;6.764;2024-03-08T00:22:46;4.10;99.90
26503;DHT22;14177;51.520;6.764;2024-03-08T00:25:13;4.00;99.90
26503;DHT22;14177;51.520;6.764;2024-03-08T00:27:40;4.00;99.90
26503;DHT22;14177;51.520;6.764;2024-03-08T00:30:10;3.90;99.90
26503;DHT22;14177;51.520;6.764;2024-03-08T00:32:40;3.90;99.90
26503;DHT22;14177;51.520;6.764;2024-03-08T00:35:08;3.90;99.90
26503;DHT22;14177;51.520;6.764;2024-03-08T00:37:35;3.90;99.90
26503;DHT22;14177;51.520;6.764;2024-03-08T00:40:02;3.80;99.90
26503;DHT22;14177;51.520;6.764;2024-03-08T00:42:29;3.80;99.90
26503;DHT22;14177;51.520;6.764;2024-03-08T00:44:56;3.80;99.90
26503;DHT22;14177;51.520;6.764;2024-03-08T00:47:24;3.80;99.90
26503;DHT22;14177;51.520;6.764;2024-03-08T00:49:51;3.70;99.90
26503;DHT22;14177;51.520;6.764;2024-03-08T00:52:19;3.70;99.90
26503;DHT22;14177;51.520;6.764;2024-03-08T00:54:46;3.70;99.90
26503;DHT22;14177;51.520;6.764;2024-03-08T00:57:13;3.60;99.90
26503;DHT22;14177;51.520;6.764;2024-03-08T00:59:40;3.70;99.90
26503;DHT22;14177;51.520;6.764;2024-03-08T01:02:07;3.60;99.90
26503;DHT22;14177;51.520;6.764;2024-03-08T01:04:35;3.60;99.90
26503;DHT22;14177;51.520;6.764;2024-03-08T01:07:02;3.60;99.90
26503;DHT22;14177;51.520;6.764;2024-03-08T01:09:29;3.50;99.90
26503;DHT22;14177;51.520;6.764;2024-03-08T01:11:56;3.50;99.90
26503;DHT22;14177;51.520;6.764;2024-03-08T01:14:24;3.50;99.90
26503;DHT22;14177;51.520;6.764;2024-03-08T01:16:56;3.50;99.90
26503;DHT22;14177;51.520;6.764;2024-03-08T01:19:23;3.50;99.90
26503;DHT22;14177;51.520;6.764;2024-03-08T01:21:51;3.50;99.90
26503;DHT22;14177;51.520;6.764;2024-03-08T01:24:18;3.40;99.90
26503;DHT22;14177;51.520;6.764;2024-03-08T01:26:45;3.40;99.90
26503;DHT22;14177;51.520;6.764;2024-03-08T01:29:13;3.40;99.90
26503;DHT22;14177;51.520;6.764;2024-03-08T01:31:40;3.40;99.90
26503;DHT22;14177;51.520;6.764;2024-03-08T01:34:07;3.30;99.90
26503;DHT22;14177;51.520;6.764;2024-03-08T01:36:34;3.30;99.90
26503;DHT22;14177;51.520;6.764;2024-03-08T01:39:00;3.30;99.90
26503;DHT22;14177;51.520;6.764;2024-03-08T01:41:27;3.20;99.90
26503;DHT22;14177;51.520;6.764;2024-03-08T01:43:56;3.20;99.90
26503;DHT22;14177;51.520;6.764;2024-03-08T01:46:23;3.20;99.90
26503;DHT22;14177;51.520;6.764;2024-03-08T01:48:51;3.20;99.90
26503;DHT22;14177;51.520;6.764;2024-03-08T01:51:19;3.10;99.90
26503;DHT22;14177;51.520;6.764;2024-03-08T01:53:47;3.10;99.90
26503;DHT22;14177;51.520;6.764;2024-03-08T01:56:15;3.10;99.90
26503;DHT22;14177;51.520;6.764;2024-03-08T01:58:44;3.10;99.90
26503;DHT22;14177;51.520;6.764;2024-03-08T02:01:13;3.10;99.90
26503;DHT22;14177;51.520;6.764;2024-03-08T02:03:45;3.00;99.90
26503;DHT22;14177;51.520;6.764;2024-03-08T02:06:13;3.00;99.90
26503;DHT22;14177;51.520;6.764;2024-03-08T02:08:43;3.00;99.90
26503;DHT22;14177;51.520;6.764;2024-03-08T02:11:11;3.00;99.90
26503;DHT22;14177;51.520;6.764;2024-03-08T02:13:39;2.90;99.90
26503;DHT22;14177;51.520;6.764;2024-03-08T02:16:06;2.90;99.90
26503;DHT22;14177;51.520;6.764;2024-03-08T02:18:35;2.90;99.90
26503;DHT22;14177;51.520;6.764;2024-03-08T02:21:04;2.90;99.90
26503;DHT22;14177;51.520;6.764;2024-03-08T02:23:32;2.80;99.90
26503;DHT22;14177;51.520;6.764;2024-03-08T02:26:00;2.80;99.90
26503;DHT22;14177;51.520;6.764;2024-03-08T02:28:27;2.80;99.90
26503;DHT22;14177;51.520;6.764;2024-03-08T02:30:57;2.80;99.90
26503;DHT22;14177;51.520;6.764;2024-03-08T02:33:26;2.70;99.90
26503;DHT22;14177;51.520;6.764;2024-03-08T02:35:54;2.70;99.90
26503;DHT22;14177;51.520;6.764;2024-03-08T02:38:26;2.70;99.90
26503;DHT22;14177;51.520;6.764;2024-03-08T02:40:53;2.70;99.90
26503;DHT22;14177;51.520;6.764;2024-03-08T02:43:21;2.70;99.90
26503;DHT22;14177;51.520;6.764;2024-03-08T02:45:50;2.70;99.90
26503;DHT22;14177;51.520;6.764;2024-03-08T02:48:19;2.60;99.90
26503;DHT22;14177;51.520;6.764;2024-03-08T02:50:48;2.60;99.90
26503;DHT22;14177;51.520;6.764;2024-03-08T02:53:17;2.60;99.90
26503;DHT22;14177;51.520;6.764;2024-03-08T02:55:45;2.60;99.90
26503;DHT22;14177;51.520;6.764;2024-03-08T02:58:13;2.50;99.90
26503;DHT22;14177;51.520;6.764;2024-03-08T03:00:41;2.50;99.90
26503;DHT22;14177;51.520;6.764;2024-03-08T03:03:08;2.50;99.90
26503;DHT22;14177;51.520;6.764;2024-03-08T03:05:37;2.50;99.90
26503;DHT22;14177;51.520;6.764;2024-03-08T03:08:04;2.40;99.90
26503;DHT22;14177;51.520;6.764;2024-03-08T03:10:36;2.40;99.90
26503;DHT22;14177;51.520;6.764;2024-03-08T03:13:03;2.40;99.90
26503;DHT22;14177;51.520;6.764;2024-03-08T03:15:31;2.40;99.90
26503;DHT22;14177;51.520;6.764;2024-03-08T03:18:00;2.40;99.90
26503;DHT22;14177;51.520;6.764;2024-03-08T03:20:28;2.30;99.90
26503;DHT22;14177;51.520;6.764;2024-03-08T03:22:59;2.30;99.90
26503;DHT22;14177;51.520;6.764;2024-03-08T03:25:30;2.30;99.90
26503;DHT22;14177;51.520;6.764;2024-03-08T03:28:02;2.30;99.90
26503;DHT22;14177;51.520;6.764;2024-03-08T03:30:29;2.30;99.90
26503;DHT22;14177;51.520;6.764;2024-03-08T03:33:02;2.30;99.90
26503;DHT22;14177;51.520;6.764;2024-03-08T03:35:33;2.30;99.90
26503;DHT22;14177;51.520;6.764;2024-03-08T03:38:01;2.20;99.90
26503;DHT22;14177;51.520;6.764;2024-03-08T03:40:29;2.20;99.90
26503;DHT22;14177;51.520;6.764;2024-03-08T03:42:56;2.20;99.90
26503;DHT22;14177;51.520;6.764;2024-03-08T03:45:23;2.20;99.90
26503;DHT22;14177;51.520;6.764;2024-03-08T03:47:50;2.10;99.90
26503;DHT22;14177;51.520;6.764;2024-03-08T03:50:19;2.10;99.90
26503;DHT22;14177;51.520;6.764;2024-03-08T03:52:47;2.10;99.90
26503;DHT22;14177;51.520;6.764;2024-03-08T03:55:15;2.10;99.90
26503;DHT22;14177;51.520;6.764;2024-03-08T03:57:42;2.10;99.90
26503;DHT22;14177;51.520;6.764;2024-03-08T04:00:10;2.10;99.90
26503;DHT22;14177;51.520;6.764;2024-03-08T04:02:40;2.10;99.90
26503;DHT22;14177;51.520;6.764;2024-03-08T04:05:09;2.00;99.90
26503;DHT22;14177;51.520;6.764;2024-03-08T04:07:37;2.00;99.90
26503;DHT22;14177;51.520;6.764;2024-03-08T04:10:06;2.00;99.90
26503;DHT22;14177;51.520;6.764;2024-03-08T04:12:35;2.00;99.90
26503;DHT22;14177;51.520;6.764;2024-03-08T04:15:02;2.00;99.90
26503;DHT22;14177;51.520;6.764;2024-03-08T04:17:30;1.90;99.90
26503;DHT22;14177;51.520;6.764;2024-03-08T04:19:56;2.00;99.90
26503;DHT22;14177;51.520;6.764;2024-03-08T04:22:24;1.90;99.90
26503;DHT22;14177;51.520;6.764;2024-03-08T04:24:51;1.90;99.90
26503;DHT22;14177;51.520;6.764;2024-03-08T04:27:18;1.90;99.90
26503;DHT22;14177;51.520;6.764;2024-03-08T04:29:45;1.90;99.90
26503;DHT22;14177;51.520;6.764;2024-03-08T04:32:13;1.80;99.90
26503;DHT22;14177;51.520;6.764;2024-03-08T04:34:40;1.80;99.90
26503;DHT22;14177;51.520;6.764;2024-03-08T04:37:12;1.80;99.90
26503;DHT22;14177;51.520;6.764;2024-03-08T04:39:40;1.80;99.90
26503;DHT22;14177;51.520;6.764;2024-03-08T04:42:07;1.80;99.90
26503;DHT22;14177;51.520;6.764;2024-03-08T04:44:37;1.80;99.90
26503;DHT22;14177;51.520;6.764;2024-03-08T04:47:04;1.80;99.90
26503;DHT22;14177;51.520;6.764;2024-03-08T04:49:34;1.80;99.90
26503;DHT22;14177;51.520;6.764;2024-03-08T04:52:03;1.70;99.90
26503;DHT22;14177;51.520;6.764;2024-03-08T04:54:30;1.70;99.90
26503;DHT22;14177;51.520;6.764;2024-03-08T04:56:58;1.70;99.90
26503;DHT22;14177;51.520;6.764;2024-03-08T04:59:27;1.70;99.90
26503;DHT22;14177;51.520;6.764;2024-03-08T05:01:54;1.70;99.90
26503;DHT22;14177;51.520;6.764;2024-03-08T05:04:22;1.70;99.90
26503;DHT22;14177;51.520;6.764;2024-03-08T05:06:49;1.70;99.90
26503;DHT22;14177;51.520;6.764;2024-03-08T05:09:16;1.70;99.90
26503;DHT22;14177;51.520;6.764;2024-03-08T05:11:46;1.70;99.90
26503;DHT22;14177;51.520;6.764;2024-03-08T05:14:14;1.60;99.90
26503;DHT22;14177;51.520;6.764;2024-03-08T05:16:48;1.70;99.90
26503;DHT22;14177;51.520;6.764;2024-03-08T05:19:16;1.60;99.90
26503;DHT22;14177;51.520;6.764;2024-03-08T05:21:44;1.70;99.90
26503;DHT22;14177;51.520;6.764;2024-03-08T05:24:15;1.60;99.90
26503;DHT22;14177;51.520;6.764;2024-03-08T05:26:43;1.60;99.90
26503;DHT22;14177;51.520;6.764;2024-03-08T05:29:11;1.60;99.90
26503;DHT22;14177;51.520;6.764;2024-03-08T05:31:49;1.60;99.90
26503;DHT22;14177;51.520;6.764;2024-03-08T05:34:19;1.60;99.90
26503;DHT22;14177;51.520;6.764;2024-03-08T05:36:49;1.50;99.90
26503;DHT22;14177;51.520;6.764;2024-03-08T05:39:17;1.50;99.90
26503;DHT22;14177;51.520;6.764;2024-03-08T05:41:45;1.50;99.90
26503;DHT22;14177;51.520;6.764;2024-03-08T05:44:13;1.50;99.90
26503;DHT22;14177;51.520;6.764;2024-03-08T05:46:40;1.50;99.90
26503;DHT22;14177;51.520;6.764;2024-03-08T05:49:07;1.50;99.90
26503;DHT22;14177;51.520;6.764;2024-03-08T05:51:38;1.50;99.90
26503;DHT22;14177;51.520;6.764;2024-03-08T05:54:08;1.40;99.90
26503;DHT22;14177;51.520;6.764;2024-03-08T05:56:38;1.50;99.90
26503;DHT22;14177;51.520;6.764;2024-03-08T05:59:07;1.40;99.90
26503;DHT22;14177;51.520;6.764;2024-03-08T06:01:34;1.40;99.90
26503;DHT22;14177;51.520;6.764;2024-03-08T06:04:03;1.40;99.90
26503;DHT22;14177;51.520;6.764;2024-03-08T06:06:30;1.40;99.90
26503;DHT22;14177;51.520;6.764;2024-03-08T06:08:57;1.40;99.90
26503;DHT22;14177;51.520;6.764;2024-03-08T06:11:26;1.40;99.90
26503;DHT22;14177;51.520;6.764;2024-03-08T06:13:57;1.40;99.90
26503;DHT22;14177;51.520;6.764;2024-03-08T06:16:27;1.40;99.90
26503;DHT22;14177;51.520;6.764;2024-03-08T06:18:56;1.40;99.90
26503;DHT22;14177;51.520;6.764;2024-03-08T06:21:26;1.40;99.90
26503;DHT22;14177;51.520;6.764;2024-03-08T06:23:55;1.50;99.90
26503;DHT22;14177;51.520;6.764;2024-03-08T06:26:24;1.50;99.90
26503;DHT22;14177;51.520;6.764;2024-03-08T06:28:56;1.50;99.90
26503;DHT22;14177;51.520;6.764;2024-03-08T06:31:24;1.50;99.90
26503;DHT22;14177;51.520;6.764;2024-03-08T06:33:51;1.50;99.90
26503;DHT22;14177;51.520;6.764;2024-03-08T06:36:21;1.50;99.90
26503;DHT22;14177;51.520;6.764;2024-03-08T06:38:49;1.60;99.90
26503;DHT22;14177;51.520;6.764;2024-03-08T06:41:17;1.60;99.90
26503;DHT22;14177;51.520;6.764;2024-03-08T06:43:45;1.60;99.90
26503;DHT22;14177;51.520;6.764;2024-03-08T06:46:15;1.70;99.90
26503;DHT22;14177;51.520;6.764;2024-03-08T06:48:42;1.70;99.90
26503;DHT22;14177;51.520;6.764;2024-03-08T06:51:09;1.70;99.90
26503;DHT22;14177;51.520;6.764;2024-03-08T06:53:37;1.80;99.90
26503;DHT22;14177;51.520;6.764;2024-03-08T06:56:05;1.90;99.90
26503;DHT22;14177;51.520;6.764;2024-03-08T06:58:34;2.00;99.90
26503;DHT22;14177;51.520;6.764;2024-03-08T07:01:01;2.10;99.90
26503;DHT22;14177;51.520;6.764;2024-03-08T07:03:31;2.20;99.90
26503;DHT22;14177;51.520;6.764;2024-03-08T07:05:59;2.40;99.90
26503;DHT22;14177;51.520;6.764;2024-03-08T07:08:29;2.50;99.90
26503;DHT22;14177;51.520;6.764;2024-03-08T07:10:56;2.70;99.90
26503;DHT22;14177;51.520;6.764;2024-03-08T07:13:25;2.90;99.90
26503;DHT22;14177;51.520;6.764;2024-03-08T07:15:55;3.00;99.90
26503;DHT22;14177;51.520;6.764;2024-03-08T07:18:22;3.20;99.90
26503;DHT22;14177;51.520;6.764;2024-03-08T07:20:50;3.40;99.90
26503;DHT22;14177;51.520;6.764;2024-03-08T07:23:17;3.50;99.90
26503;DHT22;14177;51.520;6.764;2024-03-08T07:26:10;3.60;99.90
26503;DHT22;14177;51.520;6.764;2024-03-08T07:28:37;3.80;99.90
26503;DHT22;14177;51.520;6.764;2024-03-08T07:31:04;3.90;99.90
26503;DHT22;14177;51.520;6.764;2024-03-08T07:33:40;4.10;99.90
26503;DHT22;14177;51.520;6.764;2024-03-08T07:36:10;4.30;99.90
26503;DHT22;14177;51.520;6.764;2024-03-08T07:38:37;4.40;99.90
26503;DHT22;14177;51.520;6.764;2024-03-08T07:41:04;4.70;99.90
26503;DHT22;14177;51.520;6.764;2024-03-08T07:43:32;4.80;99.90
26503;DHT22;14177;51.520;6.764;2024-03-08T07:46:02;5.10;99.90
26503;DHT22;14177;51.520;6.764;2024-03-08T07:48:29;5.30;12.20
26503;DHT22;14177;51.520;6.764;2024-03-08T07:51:00;5.60;8.00
26503;DHT22;14177;51.520;6.764;2024-03-08T07:53:27;5.70;1.00
26503;DHT22;14177;51.520;6.764;2024-03-08T07:55:59;5.80;1.00
26503;DHT22;14177;51.520;6.764;2024-03-08T07:58:28;5.90;1.00
26503;DHT22;14177;51.520;6.764;2024-03-08T08:01:01;6.10;1.00
26503;DHT22;14177;51.520;6.764;2024-03-08T08:03:31;6.30;1.00
26503;DHT22;14177;51.520;6.764;2024-03-08T08:06:00;6.50;1.00
26503;DHT22;14177;51.520;6.764;2024-03-08T08:08:28;6.60;1.00
26503;DHT22;14177;51.520;6.764;2024-03-08T08:11:02;6.80;1.00
26503;DHT22;14177;51.520;6.764;2024-03-08T08:13:40;6.90;1.00
26503;DHT22;14177;51.520;6.764;2024-03-08T08:16:09;6.90;99.90
26503;DHT22;14177;51.520;6.764;2024-03-08T08:18:37;7.10;1.00
26503;DHT22;14177;51.520;6.764;2024-03-08T08:21:11;7.20;99.90
26503;DHT22;14177;51.520;6.764;2024-03-08T08:23:41;7.20;1.00
26503;DHT22;14177;51.520;6.764;2024-03-08T08:26:12;7.30;1.00
26503;DHT22;14177;51.520;6.764;2024-03-08T08:28:44;7.50;1.00
26503;DHT22;14177;51.520;6.764;2024-03-08T08:31:21;7.60;1.00
26503;DHT22;14177;51.520;6.764;2024-03-08T08:33:51;7.90;99.90
26503;DHT22;14177;51.520;6.764;2024-03-08T08:36:23;8.00;1.00
26503;DHT22;14177;51.520;6.764;2024-03-08T08:38:51;7.90;99.90
26503;DHT22;14177;51.520;6.764;2024-03-08T08:41:23;8.00;99.90
26503;DHT22;14177;51.520;6.764;2024-03-08T08:43:50;8.20;99.90
26503;DHT22;14177;51.520;6.764;2024-03-08T08:46:41;8.40;99.90
26503;DHT22;14177;51.520;6.764;2024-03-08T08:49:09;8.60;1.00
26503;DHT22;14177;51.520;6.764;2024-03-08T08:51:49;8.90;99.90
26503;DHT22;14177;51.520;6.764;2024-03-08T08:54:18;8.90;99.90
26503;DHT22;14177;51.520;6.764;2024-03-08T08:56:46;9.20;99.90
26503;DHT22;14177;51.520;6.764;2024-03-08T08:59:24;9.30;1.00
26503;DHT22;14177;51.520;6.764;2024-03-08T09:01:55;9.60;1.00
26503;DHT22;14177;51.520;6.764;2024-03-08T09:04:28;9.90;1.00
26503;DHT22;14177;51.520;6.764;2024-03-08T09:07:03;10.10;1.00
26503;DHT22;14177;51.520;6.764;2024-03-08T09:09:36;10.40;1.00
26503;DHT22;14177;51.520;6.764;2024-03-08T09:12:09;10.70;1.00
26503;DHT22;14177;51.520;6.764;2024-03-08T09:14:43;10.80;1.00
26503;DHT22;14177;51.520;6.764;2024-03-08T09:17:16;11.30;1.00
26503;DHT22;14177;51.520;6.764;2024-03-08T09:20:00;11.50;1.00
26503;DHT22;14177;51.520;6.764;2024-03-08T09:22:31;11.60;1.00
26503;DHT22;14177;51.520;6.764;2024-03-08T09:25:05;11.80;1.00
26503;DHT22;14177;51.520;6.764;2024-03-08T09:27:42;11.80;1.00
26503;DHT22;14177;51.520;6.764;2024-03-08T09:30:20;12.00;1.00
26503;DHT22;14177;51.520;6.764;2024-03-08T09:33:02;11.80;1.00
26503;DHT22;14177;51.520;6.764;2024-03-08T09:35:47;12.10;1.00
26503;DHT22;14177;51.520;6.764;2024-03-08T09:38:15;12.00;1.00
26503;DHT22;14177;51.520;6.764;2024-03-08T09:40:44;12.00;1.00
26503;DHT22;14177;51.520;6.764;2024-03-08T09:43:23;12.30;1.00
26503;DHT22;14177;51.520;6.764;2024-03-08T09:46:00;12.00;99.90
26503;DHT22;14177;51.520;6.764;2024-03-08T09:49:00;11.90;1.00
26503;DHT22;14177;51.520;6.764;2024-03-08T09:51:33;12.10;1.00
26503;DHT22;14177;51.520;6.764;2024-03-08T09:54:10;12.40;1.00
26503;DHT22;14177;51.520;6.764;2024-03-08T09:56:51;12.70;1.00
26503;DHT22;14177;51.520;6.764;2024-03-08T09:59:33;12.70;1.00
26503;DHT22;14177;51.520;6.764;2024-03-08T10:02:06;12.70;1.00
26503;DHT22;14177;51.520;6.764;2024-03-08T10:04:45;12.40;1.00
26503;DHT22;14177;51.520;6.764;2024-03-08T10:07:23;12.40;99.90
26503;DHT22;14177;51.520;6.764;2024-03-08T10:10:00;12.60;1.00
26503;DHT22;14177;51.520;6.764;2024-03-08T10:12:35;13.00;99.90
26503;DHT22;14177;51.520;6.764;2024-03-08T10:15:08;13.10;99.90
26503;DHT22;14177;51.520;6.764;2024-03-08T10:17:48;12.80;99.90
26503;DHT22;14177;51.520;6.764;2024-03-08T10:20:25;12.80;99.90
26503;DHT22;14177;51.520;6.764;2024-03-08T10:23:20;12.80;99.90
26503;DHT22;14177;51.520;6.764;2024-03-08T10:26:18;13.10;99.90
26503;DHT22;14177;51.520;6.764;2024-03-08T10:28:48;12.90;99.90
26503;DHT22;14177;51.520;6.764;2024-03-08T10:31:27;12.70;1.00
26503;DHT22;14177;51.520;6.764;2024-03-08T10:33:57;12.80;1.00
26503;DHT22;14177;51.520;6.764;2024-03-08T10:36:34;12.60;99.90
26503;DHT22;14177;51.520;6.764;2024-03-08T10:39:23;12.60;1.00
26503;DHT22;14177;51.520;6.764;2024-03-08T10:42:06;12.70;99.90
26503;DHT22;14177;51.520;6.764;2024-03-08T10:45:04;13.40;99.90
26503;DHT22;14177;51.520;6.764;2024-03-08T10:48:04;13.80;99.90
26503;DHT22;14177;51.520;6.764;2024-03-08T10:50:49;13.80;99.90
26503;DHT22;14177;51.520;6.764;2024-03-08T10:53:30;13.80;99.90
26503;DHT22;14177;51.520;6.764;2024-03-08T10:56:29;13.90;99.90
26503;DHT22;14177;51.520;6.764;2024-03-08T10:59:01;13.90;99.90
26503;DHT22;14177;51.520;6.764;2024-03-08T11:01:33;13.70;99.90
26503;DHT22;14177;51.520;6.764;2024-03-08T11:04:10;14.10;99.90
26503;DHT22;14177;51.520;6.764;2024-03-08T11:09:49;14.10;99.90
26503;DHT22;14177;51.520;6.764;2024-03-08T11:12:26;14.10;99.90
26503;DHT22;14177;51.520;6.764;2024-03-08T11:15:09;14.00;99.90
26503;DHT22;14177;51.520;6.764;2024-03-08T11:17:51;14.10;1.00
26503;DHT22;14177;51.520;6.764;2024-03-08T11:20:25;14.40;1.00
26503;DHT22;14177;51.520;6.764;2024-03-08T11:23:08;14.50;1.00
26503;DHT22;14177;51.520;6.764;2024-03-08T11:25:40;14.60;1.00
26503;DHT22;14177;51.520;6.764;2024-03-08T11:28:26;14.90;1.00
26503;DHT22;14177;51.520;6.764;2024-03-08T11:33:39;14.40;1.00
26503;DHT22;14177;51.520;6.764;2024-03-08T11:36:13;14.40;1.00
26503;DHT22;14177;51.520;6.764;2024-03-08T11:38:52;14.70;1.00
26503;DHT22;14177;51.520;6.764;2024-03-08T11:41:32;14.80;1.00
26503;DHT22;14177;51.520;6.764;2024-03-08T11:44:16;15.20;1.00
26503;DHT22;14177;51.520;6.764;2024-03-08T11:46:51;15.00;1.00
26503;DHT22;14177;51.520;6.764;2024-03-08T11:49:25;15.30;1.00
26503;DHT22;14177;51.520;6.764;2024-03-08T11:52:04;15.20;1.00
26503;DHT22;14177;51.520;6.764;2024-03-08T11:54:55;15.50;1.00
26503;DHT22;14177;51.520;6.764;2024-03-08T11:57:27;15.10;1.00
26503;DHT22;14177;51.520;6.764;2024-03-08T12:00:00;15.30;1.00
26503;DHT22;14177;51.520;6.764;2024-03-08T12:02:41;15.30;1.00
26503;DHT22;14177;51.520;6.764;2024-03-08T12:05:12;15.50;1.00
26503;DHT22;14177;51.520;6.764;2024-03-08T12:07:57;15.30;1.00
26503;DHT22;14177;51.520;6.764;2024-03-08T12:10:28;15.60;1.00
26503;DHT22;14177;51.520;6.764;2024-03-08T12:12:58;15.60;1.00
26503;DHT22;14177;51.520;6.764;2024-03-08T12:15:41;15.40;1.00
26503;DHT22;14177;51.520;6.764;2024-03-08T12:18:15;15.50;1.00
26503;DHT22;14177;51.520;6.764;2024-03-08T12:20:42;15.60;99.90
26503;DHT22;14177;51.520;6.764;2024-03-08T12:23:17;15.70;1.00
26503;DHT22;14177;51.520;6.764;2024-03-08T12:25:53;15.80;99.90
26503;DHT22;14177;51.520;6.764;2024-03-08T12:28:29;15.80;99.90
26503;DHT22;14177;51.520;6.764;2024-03-08T12:30:56;15.70;1.00
26503;DHT22;14177;51.520;6.764;2024-03-08T12:34:01;15.40;99.90
26503;DHT22;14177;51.520;6.764;2024-03-08T12:36:33;15.60;1.00
26503;DHT22;14177;51.520;6.764;2024-03-08T12:39:03;15.70;99.90
26503;DHT22;14177;51.520;6.764;2024-03-08T12:41:45;15.90;1.00
26503;DHT22;14177;51.520;6.764;2024-03-08T12:44:23;16.10;1.00
26503;DHT22;14177;51.520;6.764;2024-03-08T12:47:03;16.30;1.00
26503;DHT22;14177;51.520;6.764;2024-03-08T12:49:34;16.40;1.00
26503;DHT22;14177;51.520;6.764;2024-03-08T12:52:10;16.20;1.00
26503;DHT22;14177;51.520;6.764;2024-03-08T12:54:51;16.60;1.00
26503;DHT22;14177;51.520;6.764;2024-03-08T12:57:29;16.50;1.00
26503;DHT22;14177;51.520;6.764;2024-03-08T13:00:06;16.60;1.00
26503;DHT22;14177;51.520;6.764;2024-03-08T13:02:42;16.40;1.00
26503;DHT22;14177;51.520;6.764;2024-03-08T13:05:13;16.30;1.00
26503;DHT22;14177;51.520;6.764;2024-03-08T13:07:55;16.50;1.00
26503;DHT22;14177;51.520;6.764;2024-03-08T13:10:31;16.60;1.00
26503;DHT22;14177;51.520;6.764;2024-03-08T13:13:11;16.80;1.00
26503;DHT22;14177;51.520;6.764;2024-03-08T13:16:13;17.00;1.00
26503;DHT22;14177;51.520;6.764;2024-03-08T13:18:49;17.00;1.00
26503;DHT22;14177;51.520;6.764;2024-03-08T13:21:33;17.20;1.00
26503;DHT22;14177;51.520;6.764;2024-03-08T13:24:11;17.20;1.00
26503;DHT22;14177;51.520;6.764;2024-03-08T13:26:47;16.70;1.00
26503;DHT22;14177;51.520;6.764;2024-03-08T13:29:25;16.90;1.00
26503;DHT22;14177;51.520;6.764;2024-03-08T13:31:52;17.00;1.00
26503;DHT22;14177;51.520;6.764;2024-03-08T13:34:28;17.30;1.00
26503;DHT22;14177;51.520;6.764;2024-03-08T13:37:03;17.40;1.00
26503;DHT22;14177;51.520;6.764;2024-03-08T13:39:39;17.50;1.00
26503;DHT22;14177;51.520;6.764;2024-03-08T13:42:15;17.50;1.00
26503;DHT22;14177;51.520;6.764;2024-03-08T13:45:18;17.60;1.00
26503;DHT22;14177;51.520;6.764;2024-03-08T13:48:00;17.60;1.00
26503;DHT22;14177;51.520;6.764;2024-03-08T13:50:48;17.70;1.00
26503;DHT22;14177;51.520;6.764;2024-03-08T13:53:34;17.50;1.00
26503;DHT22;14177;51.520;6.764;2024-03-08T13:56:04;17.40;1.00
26503;DHT22;14177;51.520;6.764;2024-03-08T13:58:41;17.30;1.00
26503;DHT22;14177;51.520;6.764;2024-03-08T14:01:11;17.00;1.00
26503;DHT22;14177;51.520;6.764;2024-03-08T14:03:41;16.80;1.00
26503;DHT22;14177;51.520;6.764;2024-03-08T14:06:09;16.70;1.00
26503;DHT22;14177;51.520;6.764;2024-03-08T14:08:51;16.60;1.00
26503;DHT22;14177;51.520;6.764;2024-03-08T14:11:26;16.30;1.00
26503;DHT22;14177;51.520;6.764;2024-03-08T14:13:56;16.60;1.00
26503;DHT22;14177;51.520;6.764;2024-03-08T14:16:23;16.80;1.00
26503;DHT22;14177;51.520;6.764;2024-03-08T14:18:50;16.70;1.00
26503;DHT22;14177;51.520;6.764;2024-03-08T14:21:22;16.80;1.00
26503;DHT22;14177;51.520;6.764;2024-03-08T14:24:00;16.90;1.00
26503;DHT22;14177;51.520;6.764;2024-03-08T14:26:30;17.10;1.00
26503;DHT22;14177;51.520;6.764;2024-03-08T14:28:57;17.00;1.00
26503;DHT22;14177;51.520;6.764;2024-03-08T14:31:24;17.30;1.00
26503;DHT22;14177;51.520;6.764;2024-03-08T14:33:54;16.70;1.00
26503;DHT22;14177;51.520;6.764;2024-03-08T14:36:26;16.40;1.00
26503;DHT22;14177;51.520;6.764;2024-03-08T14:39:05;16.70;1.00
26503;DHT22;14177;51.520;6.764;2024-03-08T14:41:43;16.80;1.00
26503;DHT22;14177;51.520;6.764;2024-03-08T14:44:18;16.70;1.00
26503;DHT22;14177;51.520;6.764;2024-03-08T14:47:04;16.70;1.00
26503;DHT22;14177;51.520;6.764;2024-03-08T14:49:35;17.10;1.00
26503;DHT22;14177;51.520;6.764;2024-03-08T14:52:07;17.30;1.00
26503;DHT22;14177;51.520;6.764;2024-03-08T14:54:54;16.80;1.00
26503;DHT22;14177;51.520;6.764;2024-03-08T14:57:25;16.80;1.00
26503;DHT22;14177;51.520;6.764;2024-03-08T14:59:53;16.30;1.00
26503;DHT22;14177;51.520;6.764;2024-03-08T15:02:32;16.30;1.00
26503;DHT22;14177;51.520;6.764;2024-03-08T15:05:17;16.10;1.00
26503;DHT22;14177;51.520;6.764;2024-03-08T15:07:47;16.30;1.00
26503;DHT22;14177;51.520;6.764;2024-03-08T15:10:22;16.30;1.00
26503;DHT22;14177;51.520;6.764;2024-03-08T15:13:02;16.20;1.00
26503;DHT22;14177;51.520;6.764;2024-03-08T15:15:36;15.90;1.00
26503;DHT22;14177;51.520;6.764;2024-03-08T15:18:16;16.00;1.00
26503;DHT22;14177;51.520;6.764;2024-03-08T15:20:46;16.00;1.00
26503;DHT22;14177;51.520;6.764;2024-03-08T15:23:24;15.90;1.00
26503;DHT22;14177;51.520;6.764;2024-03-08T15:26:18;15.60;1.00
26503;DHT22;14177;51.520;6.764;2024-03-08T15:28:49;15.60;1.00
26503;DHT22;14177;51.520;6.764;2024-03-08T15:31:18;15.40;1.00
26503;DHT22;14177;51.520;6.764;2024-03-08T15:33:53;15.10;1.00
26503;DHT22;14177;51.520;6.764;2024-03-08T15:36:37;14.90;1.00
26503;DHT22;14177;51.520;6.764;2024-03-08T15:39:09;14.90;1.00
26503;DHT22;14177;51.520;6.764;2024-03-08T15:42:01;15.00;1.00
26503;DHT22;14177;51.520;6.764;2024-03-08T15:44:30;14.90;1.00
26503;DHT22;14177;51.520;6.764;2024-03-08T15:47:00;14.90;1.00
26503;DHT22;14177;51.520;6.764;2024-03-08T15:49:35;14.80;1.00
26503;DHT22;14177;51.520;6.764;2024-03-08T15:52:07;14.60;1.00
26503;DHT22;14177;51.520;6.764;2024-03-08T15:54:34;14.70;1.00
26503;DHT22;14177;51.520;6.764;2024-03-08T15:57:10;14.40;1.00
26503;DHT22;14177;51.520;6.764;2024-03-08T15:59:48;14.30;1.00
26503;DHT22;14177;51.520;6.764;2024-03-08T16:02:31;14.10;1.00
26503;DHT22;14177;51.520;6.764;2024-03-08T16:05:03;13.90;1.00
26503;DHT22;14177;51.520;6.764;2024-03-08T16:07:33;13.80;1.00
26503;DHT22;14177;51.520;6.764;2024-03-08T16:10:05;13.80;1.00
26503;DHT22;14177;51.520;6.764;2024-03-08T16:12:40;13.80;1.00
26503;DHT22;14177;51.520;6.764;2024-03-08T16:15:11;13.70;1.00
26503;DHT22;14177;51.520;6.764;2024-03-08T16:17:41;13.50;1.00
26503;DHT22;14177;51.520;6.764;2024-03-08T16:20:11;13.50;1.00
26503;DHT22;14177;51.520;6.764;2024-03-08T16:22:49;13.40;1.00